Time;durP1;ratioP1;P1;durP2;ratioP2;P2;SDS_P1;SDS_P2;PMS_P1;PMS_P2;Temp;Humidity;BMP_temperature;BMP_pressure;BME280_temperature;BME280_humidity;BME280_pressure;Samples;Min_cycle;Max_cycle;Signal;HPM_P1;HPM_P2
2021/09/10 00:01:53;;;;;;;7.97;7.37;;;;;;;;;;5009580;28;20448;-94
2021/09/10 00:04:20;;;;;;;7.93;7.13;;;;;;;;;;5015518;23;20501;-92
2021/09/10 00:06:47;;;;;;;7.70;6.90;;;;;;;;;;4999126;28;20447;-93
2021/09/10 00:09:14;;;;;;;8.17;7.47;;;;;;;;;;5006794;28;20453;-92
2021/09/10 00:11:41;;;;;;;8.37;7.57;;;;;;;;;;5008756;28;20457;-94
2021/09/10 00:14:10;;;;;;;8.27;7.47;;;17.60;99.90;;;;;;5010380;28;20457;-90
2021/09/10 00:16:37;;;;;;;8.13;7.33;;;;;;;;;;5010790;28;20528;-93
2021/09/10 00:19:04;;;;;;;8.60;7.00;;;;;;;;;;5002445;28;20449;-92
2021/09/10 00:21:32;;;;;;;8.40;7.50;;;;;;;;;;5001036;28;21030;-93
2021/09/10 00:23:59;;;;;;;8.63;6.60;;;;;;;;;;4998911;28;20493;-94
2021/09/10 00:26:26;;;;;;;7.37;6.60;;;;;;;;;;4996128;28;20453;-94
2021/09/10 00:28:53;;;;;;;12.80;6.80;;;;;;;;;;5006706;23;20485;-92
2021/09/10 00:31:21;;;;;;;6.83;6.23;;;18.40;99.90;;;;;;4996639;28;20459;-92
2021/09/10 00:33:49;;;;;;;7.60;6.73;;;;;;;;;;4999073;28;20457;-94
2021/09/10 00:36:18;;;;;;;7.67;6.97;;;;;;;;;;5002381;28;20804;-92
2021/09/10 00:38:45;;;;;;;7.30;6.60;;;;;;;;;;4996405;28;20445;-92
2021/09/10 00:41:12;;;;;;;7.37;6.67;;;;;;;;;;5001944;28;20424;-92
2021/09/10 00:43:40;;;;;;;6.77;6.17;;;18.80;99.90;;;;;;5001173;28;20492;-92
2021/09/10 00:46:13;;;;;;;7.53;6.40;;;;;;;;;;5000084;28;20456;-93
2021/09/10 00:48:41;;;;;;;8.03;7.33;;;;;;;;;;4997609;28;20512;-94
2021/09/10 00:51:09;;;;;;;8.20;6.83;;;;;;;;;;5001355;28;20508;-92
2021/09/10 00:53:37;;;;;;;6.60;5.90;;;18.70;99.90;;;;;;4999708;28;20948;-96
2021/09/10 00:56:05;;;;;;;7.43;6.73;;;;;;;;;;4997035;28;20500;-92
2021/09/10 00:58:32;;;;;;;7.10;6.40;;;;;;;;;;4999104;28;20529;-92
2021/09/10 01:01:00;;;;;;;8.57;7.67;;;;;;;;;;5000338;28;20460;-92
2021/09/10 01:03:27;;;;;;;7.47;6.77;;;;;;;;;;5000415;28;20489;-92
2021/09/10 01:05:57;;;;;;;6.83;6.23;;;;;;;;;;5000459;28;20468;-92
2021/09/10 01:08:29;;;;;;;7.53;6.40;;;18.60;99.90;;;;;;4994970;28;20458;-91
2021/09/10 01:10:56;;;;;;;7.80;7.10;;;;;;;;;;4994381;28;20453;-93
2021/09/10 01:13:24;;;;;;;7.17;6.57;;;18.50;99.90;;;;;;4998867;28;20464;-94
2021/09/10 01:15:51;;;;;;;10.10;7.17;;;;;;;;;;4991598;28;20524;-94
2021/09/10 01:18:19;;;;;;;7.37;6.67;;;;;;;;;;5000689;28;20445;-93
2021/09/10 01:20:48;;;;;;;7.40;6.80;;;18.40;99.90;;;;;;4999642;28;20473;-94
2021/09/10 01:23:17;;;;;;;7.83;7.13;;;18.30;99.90;;;;;;4993446;28;20513;-91
2021/09/10 01:25:47;;;;;;;8.27;7.30;;;18.30;99.90;;;;;;4954760;29;20470;-92
2021/09/10 01:28:15;;;;;;;7.63;6.93;;;18.20;99.90;;;;;;4955586;29;20953;-93
2021/09/10 01:30:44;;;;;;;7.70;6.67;;;;;;;;;;4954620;29;20491;-94
2021/09/10 01:33:11;;;;;;;7.03;6.37;;;;;;;;;;4956346;29;20883;-93
2021/09/10 01:35:39;;;;;;;8.03;6.87;;;;;;;;;;4959543;29;20466;-93
2021/09/10 01:38:08;;;;;;;8.77;7.87;;;17.90;99.90;;;;;;4958995;29;20466;-93
2021/09/10 01:40:36;;;;;;;8.07;7.37;;;;;;;;;;4939812;29;20780;-94
2021/09/10 01:43:05;;;;;;;9.33;7.67;;;17.80;99.90;;;;;;4942713;29;20482;-93
2021/09/10 01:45:33;;;;;;;8.00;7.30;;;17.70;99.90;;;;;;4955278;29;20451;-93
2021/09/10 01:48:02;;;;;;;10.20;7.63;;;17.60;99.90;;;;;;4970733;28;20463;-93
2021/09/10 01:50:29;;;;;;;9.87;8.93;;;;;;;;;;4963643;29;20532;-93
2021/09/10 01:52:57;;;;;;;9.33;7.47;;;;;;;;;;4959847;29;20463;-92
2021/09/10 01:55:24;;;;;;;8.67;7.97;;;;;;;;;;4959292;28;20467;-92
2021/09/10 01:57:52;;;;;;;8.23;7.60;;;17.60;99.90;;;;;;4958173;29;20459;-94
2021/09/10 02:00:21;;;;;;;8.50;7.70;;;17.70;99.90;;;;;;4957555;29;20546;-92
2021/09/10 02:02:48;;;;;;;7.70;7.00;;;;;;;;;;4958166;29;20451;-93
2021/09/10 02:05:16;;;;;;;8.80;8.00;;;;;;;;;;4978913;28;20457;-93
2021/09/10 02:07:43;;;;;;;14.10;8.70;;;;;;;;;;4999479;28;20463;-93
2021/09/10 02:10:13;;;;;;;10.00;7.63;;;17.70;99.90;;;;;;4996217;28;20453;-93
2021/09/10 02:12:41;;;;;;;9.50;7.60;;;17.70;99.90;;;;;;4998796;28;20461;-93
2021/09/10 02:15:10;;;;;;;9.37;7.80;;;17.70;99.90;;;;;;4994738;28;20472;-92
2021/09/10 02:17:38;;;;;;;8.73;7.83;;;;;;;;;;4992225;28;20441;-93
2021/09/10 02:20:07;;;;;;;10.73;7.60;;;18.40;99.90;;;;;;4997356;28;20508;-92
2021/09/10 02:22:34;;;;;;;10.70;7.63;;;;;;;;;;4999235;28;20468;-91
2021/09/10 02:25:01;;;;;;;7.93;7.23;;;;;;;;;;4997122;28;20493;-92
2021/09/10 02:27:33;;;;;;;8.93;8.17;;;;;;;;;;4999940;28;20826;-92
2021/09/10 02:30:00;;;;;;;12.00;8.40;;;;;;;;;;5004748;28;20984;-93
2021/09/10 02:32:28;;;;;;;7.70;7.00;;;;;;;;;;4997028;28;20460;-93
2021/09/10 02:34:56;;;;;;;7.60;6.80;;;;;;;;;;4957318;29;20471;-93
2021/09/10 02:37:24;;;;;;;8.70;7.80;;;;;;;;;;4957799;29;20457;-92
2021/09/10 02:39:52;;;;;;;9.43;7.80;;;;;;;;;;4957648;28;20470;-91
2021/09/10 02:42:19;;;;;;;8.53;7.63;;;;;;;;;;4953685;29;20455;-94
2021/09/10 02:44:46;;;;;;;7.53;6.83;;;;;;;;;;4955733;29;20501;-92
2021/09/10 02:47:13;;;;;;;12.20;7.83;;;;;;;;;;4958157;29;20459;-91
2021/09/10 02:49:40;;;;;;;8.00;7.30;;;;;;;;;;4957873;29;20478;-91
2021/09/10 02:52:09;;;;;;;8.37;7.57;;;;;;;;;;4963327;28;20463;-93
2021/09/10 02:54:36;;;;;;;8.73;7.57;;;;;;;;;;5007612;28;20448;-93
2021/09/10 02:57:03;;;;;;;8.13;7.43;;;;;;;;;;5008949;28;20430;-93
2021/09/10 02:59:30;;;;;;;8.60;7.80;;;;;;;;;;4999132;28;20453;-93
2021/09/10 03:01:58;;;;;;;9.83;8.00;;;;;;;;;;4995603;28;20456;-92
2021/09/10 03:04:25;;;;;;;8.90;8.10;;;;;;;;;;5000802;28;20544;-93
2021/09/10 03:06:52;;;;;;;8.87;7.97;;;;;;;;;;4999594;28;20437;-92
2021/09/10 03:09:20;;;;;;;8.90;8.00;;;;;;;;;;5003187;28;20457;-92
2021/09/10 03:11:47;;;;;;;8.30;7.60;;;;;;;;;;5004065;28;20484;-94
2021/09/10 03:14:15;;;;;;;9.10;8.33;;;;;;;;;;4998295;28;20456;-94
2021/09/10 03:16:42;;;;;;;10.33;7.73;;;;;;;;;;5000043;28;20448;-93
2021/09/10 03:19:09;;;;;;;9.00;8.20;;;;;;;;;;5013035;23;20551;-92
2021/09/10 03:21:36;;;;;;;9.13;8.07;;;;;;;;;;5015390;28;20453;-93
2021/09/10 03:24:07;;;;;;;9.87;7.83;;;17.70;99.90;;;;;;5009650;28;20570;-93
2021/09/10 03:26:36;;;;;;;9.43;7.20;;;;;;;;;;4965927;28;20455;-93
2021/09/10 03:29:03;;;;;;;8.87;8.07;;;;;;;;;;4959245;28;20455;-93
2021/09/10 03:31:31;;;;;;;9.03;8.13;;;;;;;;;;4961882;28;20455;-93
2021/09/10 03:33:58;;;;;;;12.63;7.40;;;;;;;;;;4962684;29;20463;-93
2021/09/10 03:36:29;;;;;;;10.17;7.90;;;;;;;;;;4967430;28;20427;-93
2021/09/10 03:38:56;;;;;;;9.37;8.53;;;;;;;;;;4969202;29;20455;-94
2021/09/10 03:41:23;;;;;;;9.10;8.20;;;;;;;;;;4962137;28;20455;-93
2021/09/10 03:43:56;;;;;;;9.33;8.13;;;17.60;99.90;;;;;;4961228;28;20497;-92
2021/09/10 03:46:25;;;;;;;8.27;7.47;;;;;;;;;;4962171;28;20452;-92
2021/09/10 03:48:52;;;;;;;8.90;8.10;;;;;;;;;;4962517;28;20459;-94
2021/09/10 03:51:19;;;;;;;8.33;7.53;;;17.50;99.90;;;;;;4984354;28;20450;-92
2021/09/10 03:53:47;;;;;;;8.47;7.77;;;;;;;;;;5000513;28;20457;-93
2021/09/10 03:56:14;;;;;;;11.90;9.10;;;;;;;;;;5003306;28;20458;-92
2021/09/10 03:58:43;;;;;;;9.17;8.27;;;;;;;;;;5001342;28;20457;-93
2021/09/10 04:01:17;;;;;;;8.77;7.97;;;;;;;;;;5004512;28;20461;-94
2021/09/10 04:03:45;;;;;;;8.80;7.90;;;;;;;;;;5000053;28;20484;-94
2021/09/10 04:06:12;;;;;;;10.40;8.90;;;;;;;;;;5001934;28;20480;-92
2021/09/10 04:08:41;;;;;;;8.73;7.93;;;;;;;;;;5002719;28;20445;-95
2021/09/10 04:11:08;;;;;;;9.57;8.63;;;;;;;;;;5002658;28;20513;-93
2021/09/10 04:13:35;;;;;;;9.80;8.90;;;;;;;;;;5008228;28;20440;-91
2021/09/10 04:16:02;;;;;;;10.13;9.23;;;;;;;;;;5014844;23;20490;-92
2021/09/10 04:18:31;;;;;;;9.90;8.57;;;;;;;;;;4999791;28;20472;-95
2021/09/10 04:20:58;;;;;;;13.57;9.30;;;;;;;;;;5002866;28;20461;-93
2021/09/10 04:23:25;;;;;;;9.93;8.93;;;;;;;;;;5003360;28;20449;-92
2021/09/10 04:25:54;;;;;;;9.77;8.73;;;;;;;;;;5005931;23;20552;-93
2021/09/10 04:28:21;;;;;;;9.07;8.17;;;;;;;;;;4999928;28;20439;-93
2021/09/10 04:30:48;;;;;;;8.43;7.63;;;;;;;;;;5003347;28;20467;-93
2021/09/10 04:33:15;;;;;;;9.40;8.50;;;;;;;;;;5007375;28;20429;-93
2021/09/10 04:35:44;;;;;;;12.67;8.37;;;;;;;;;;5005397;28;20457;-92
2021/09/10 04:38:11;;;;;;;12.17;9.10;;;;;;;;;;5002140;28;20449;-93
2021/09/10 04:40:38;;;;;;;11.23;9.20;;;;;;;;;;4997290;28;20442;-92
2021/09/10 04:43:06;;;;;;;14.83;9.47;;;16.40;99.90;;;;;;4998521;28;20507;-93
2021/09/10 04:45:34;;;;;;;12.73;9.20;;;;;;;;;;4996865;28;20496;-93
2021/09/10 04:48:01;;;;;;;10.63;9.53;;;;;;;;;;5004802;28;20566;-94
2021/09/10 04:50:30;;;;;;;10.63;9.53;;;;;;;;;;5001823;28;20453;-92
2021/09/10 04:52:58;;;;;;;10.87;8.93;;;;;;;;;;4966902;28;20454;-93
2021/09/10 04:55:26;;;;;;;10.03;8.90;;;;;;;;;;4973769;28;20466;-93
2021/09/10 04:57:53;;;;;;;10.93;9.87;;;;;;;;;;4961114;29;20455;-93
2021/09/10 05:00:20;;;;;;;10.97;9.60;;;;;;;;;;4959757;28;20465;-93
2021/09/10 05:02:47;;;;;;;11.13;9.20;;;;;;;;;;4958849;29;20554;-92
2021/09/10 05:05:14;;;;;;;20.73;9.13;;;;;;;;;;4957300;29;20487;-92
2021/09/10 05:07:42;;;;;;;10.10;8.57;;;;;;;;;;4957382;29;20451;-93
2021/09/10 05:10:11;;;;;;;10.60;9.50;;;16.90;99.90;;;;;;4963741;28;21068;-93
2021/09/10 05:12:38;;;;;;;9.20;8.40;;;;;;;;;;5005316;28;20460;-93
2021/09/10 05:15:07;;;;;;;8.70;7.90;;;;;;;;;;5002645;28;20477;-94
2021/09/10 05:17:35;;;;;;;8.97;8.07;;;;;;;;;;5009620;28;20461;-91
2021/09/10 05:20:03;;;;;;;8.90;8.20;;;;;;;;;;5005341;28;20565;-92
2021/09/10 05:22:30;;;;;;;10.10;8.27;;;;;;;;;;5004110;28;20465;-93
2021/09/10 05:24:58;;;;;;;9.53;8.63;;;;;;;;;;5002627;28;20489;-92
2021/09/10 05:27:26;;;;;;;9.47;8.33;;;;;;;;;;4997618;28;20455;-92
2021/09/10 05:29:53;;;;;;;10.63;8.20;;;;;;;;;;4997912;28;20457;-94
2021/09/10 05:32:20;;;;;;;9.40;8.40;;;;;;;;;;4957504;29;20443;-93
2021/09/10 05:34:47;;;;;;;7.80;7.00;;;;;;;;;;4956733;29;20448;-93
2021/09/10 05:37:15;;;;;;;8.80;7.90;;;;;;;;;;4956624;29;20455;-94
2021/09/10 05:39:42;;;;;;;10.70;8.80;;;;;;;;;;4952957;29;21364;-93
2021/09/10 05:42:11;;;;;;;9.97;8.60;;;17.60;99.90;;;;;;4955414;28;20463;-94
2021/09/10 05:44:40;;;;;;;11.50;7.90;;;17.80;99.90;;;;;;4954808;29;20487;-95
2021/09/10 05:47:07;;;;;;;12.93;7.80;;;;;;;;;;4952164;29;20978;-92
2021/09/10 05:49:35;;;;;;;9.77;8.03;;;;;;;;;;4960110;28;20439;-93
2021/09/10 05:52:02;;;;;;;9.00;8.10;;;;;;;;;;5000053;28;20803;-93
2021/09/10 05:54:29;;;;;;;8.80;7.90;;;;;;;;;;4996673;28;20827;-96
2021/09/10 05:56:56;;;;;;;8.60;7.77;;;;;;;;;;4999276;28;20827;-96
2021/09/10 05:59:23;;;;;;;8.67;7.50;;;;;;;;;;4996491;28;20454;-92
2021/09/10 06:01:51;;;;;;;9.23;7.83;;;19.80;99.90;;;;;;5002569;28;20449;-92
2021/09/10 06:04:18;;;;;;;7.43;6.73;;;;;;;;;;4996404;28;20451;-92
2021/09/10 06:06:46;;;;;;;9.40;8.20;;;19.70;99.90;;;;;;4999186;28;20453;-91
2021/09/10 06:09:13;;;;;;;8.57;7.83;;;;;;;;;;5000165;28;20446;-92
2021/09/10 06:11:40;;;;;;;7.40;6.70;;;;;;;;;;4997132;28;20457;-90
2021/09/10 06:14:09;;;;;;;7.50;6.80;;;;;;;;;;4994686;28;20437;-90
2021/09/10 06:16:36;;;;;;;7.77;7.07;;;;;;;;;;4994873;28;20433;-92
2021/09/10 06:19:04;;;;;;;9.47;7.70;;;19.60;99.90;;;;;;4995415;28;20465;-92
2021/09/10 06:21:31;;;;;;;8.13;7.43;;;;;;;;;;4992067;28;20454;-93
2021/09/10 06:23:58;;;;;;;8.03;7.33;;;;;;;;;;4988520;28;20492;-91
2021/09/10 06:26:25;;;;;;;8.30;7.50;;;;;;;;;;5003237;28;20505;-91
2021/09/10 06:28:53;;;;;;;7.60;7.00;;;;;;;;;;4996032;28;20487;-95
2021/09/10 06:31:20;;;;;;;8.10;7.40;;;;;;;;;;5015931;23;20484;-90
2021/09/10 06:34:09;;;;;;;7.83;7.13;;;19.90;99.90;;;;;;5017380;23;20480;-89
2021/09/10 06:36:36;;;;;;;8.13;7.30;;;;;;;;;;5000573;28;20457;-91
2021/09/10 06:39:03;;;;;;;8.60;7.90;;;19.90;99.90;;;;;;5003993;28;20428;-90
2021/09/10 06:41:32;;;;;;;8.60;7.80;;;;;;;;;;5000525;28;20491;-91
2021/09/10 06:43:59;;;;;;;9.57;8.37;;;;;;;;;;5007922;28;20437;-91
2021/09/10 06:46:26;;;;;;;9.93;7.30;;;;;;;;;;5005849;28;20495;-92
2021/09/10 06:48:53;;;;;;;8.37;7.67;;;;;;;;;;5015199;23;20485;-91
2021/09/10 06:51:24;;;;;;;9.03;8.13;;;21.30;99.90;;;;;;5019436;23;20483;-90
2021/09/10 06:53:51;;;;;;;8.50;7.67;;;;;;;;;;5009511;28;20445;-92
2021/09/10 06:56:18;;;;;;;9.00;8.20;;;;;;;;;;5006356;28;20800;-91
2021/09/10 06:58:45;;;;;;;8.37;7.60;;;;;;;;;;5004528;28;20464;-93
2021/09/10 07:01:13;;;;;;;10.03;6.87;;;20.50;99.90;;;;;;4998129;28;20520;-93
2021/09/10 07:03:40;;;;;;;8.27;7.47;;;;;;;;;;4969040;28;20441;-92
2021/09/10 07:06:08;;;;;;;7.40;6.70;;;;;;;;;;5018395;23;20490;-90
2021/09/10 07:08:49;;;;;;;8.10;7.40;;;20.60;99.90;;;;;;5051177;23;20492;-90
2021/09/10 07:11:16;;;;;;;9.10;7.13;;;;;;;;;;5015505;28;20449;-92
2021/09/10 07:13:49;;;;;;;8.00;7.20;;;;;;;;;;5012407;23;20497;-92
2021/09/10 07:16:16;;;;;;;8.27;7.57;;;;;;;;;;5012323;28;20456;-91
2021/09/10 07:18:43;;;;;;;7.80;7.10;;;;;;;;;;5000597;28;20469;-90
2021/09/10 07:21:26;;;;;;;8.50;7.60;;;;;;;;;;5107969;23;20472;-89
2021/09/10 07:23:54;;;;;;;8.67;7.20;;;;;;;;;;5004677;28;20532;-93
2021/09/10 07:26:23;;;;;;;6.60;4.93;;;;;;;;;;4995468;28;20477;-94
2021/09/10 07:28:50;;;;;;;7.10;6.40;;;;;;;;;;4997637;28;20643;-93
2021/09/10 07:31:18;;;;;;;8.57;7.20;;;;;;;;;;5009538;28;20456;-92
2021/09/10 07:33:45;;;;;;;8.07;7.00;;;;;;;;;;5006076;28;20460;-92
2021/09/10 07:36:12;;;;;;;7.83;7.07;;;;;;;;;;5001685;28;20457;-91
2021/09/10 07:38:39;;;;;;;7.37;6.77;;;;;;;;;;5005398;28;20935;-91
2021/09/10 07:41:08;;;;;;;8.50;7.60;;;21.40;99.90;;;;;;5005211;28;20963;-92
2021/09/10 07:43:35;;;;;;;8.10;7.30;;;;;;;;;;4997511;28;20454;-90
2021/09/10 07:46:02;;;;;;;8.23;7.47;;;;;;;;;;5000390;28;20516;-93
2021/09/10 07:48:29;;;;;;;9.17;7.57;;;;;;;;;;5001361;28;20468;-92
2021/09/10 07:50:56;;;;;;;7.60;6.43;;;;;;;;;;5003766;28;20449;-91
2021/09/10 07:53:24;;;;;;;8.40;7.60;;;;;;;;;;5004494;28;20539;-90
2021/09/10 07:55:51;;;;;;;8.43;7.73;;;;;;;;;;5007070;28;20437;-88
2021/09/10 07:58:20;;;;;;;8.30;7.60;;;;;;;;;;5017425;23;20484;-91
2021/09/10 08:00:47;;;;;;;7.33;6.73;;;;;;;;;;5000435;28;20830;-92
2021/09/10 08:03:15;;;;;;;7.27;6.57;;;;;;;;;;5007280;28;20457;-93
2021/09/10 08:05:42;;;;;;;8.00;7.33;;;;;;;;;;5008985;28;20501;-92
2021/09/10 08:08:09;;;;;;;8.50;7.57;;;;;;;;;;5002474;28;20464;-92
2021/09/10 08:10:36;;;;;;;8.53;7.70;;;;;;;;;;4999982;28;20453;-92
2021/09/10 08:13:03;;;;;;;7.93;7.33;;;;;;;;;;5005717;23;20855;-92
2021/09/10 08:15:31;;;;;;;8.93;7.77;;;21.10;99.90;;;;;;5000292;28;20441;-88
2021/09/10 08:17:59;;;;;;;7.93;7.13;;;;;;;;;;4998906;28;20449;-93
2021/09/10 08:20:26;;;;;;;9.07;6.90;;;;;;;;;;5002156;28;20786;-92
2021/09/10 08:22:53;;;;;;;9.83;7.70;;;;;;;;;;5001488;28;20446;-90
2021/09/10 08:25:20;;;;;;;7.37;6.70;;;;;;;;;;5002466;28;20485;-89
2021/09/10 08:27:48;;;;;;;7.67;6.93;;;21.10;99.90;;;;;;4997414;28;20447;-92
2021/09/10 08:30:16;;;;;;;9.60;7.60;;;;;;;;;;4999988;28;20464;-91
2021/09/10 08:32:44;;;;;;;12.00;7.43;;;21.30;99.90;;;;;;4998892;28;20477;-90
2021/09/10 08:35:11;;;;;;;7.30;6.60;;;;;;;;;;4993129;28;20480;-89
2021/09/10 08:37:39;;;;;;;7.60;6.90;;;;;;;;;;4999591;28;20449;-91
2021/09/10 08:40:08;;;;;;;8.57;7.70;;;21.40;99.90;;;;;;5002276;28;20484;-89
2021/09/10 08:42:36;;;;;;;7.90;7.27;;;;;;;;;;5006361;28;20488;-89
2021/09/10 08:45:04;;;;;;;9.30;7.17;;;;;;;;;;5001398;28;20441;-89
2021/09/10 08:47:31;;;;;;;7.60;6.70;;;;;;;;;;5003026;28;20461;-90
2021/09/10 08:50:00;;;;;;;7.17;6.20;;;24.70;99.90;;;;;;4994010;28;20457;-88
2021/09/10 08:52:27;;;;;;;6.87;6.27;;;;;;;;;;5000530;28;20449;-88
2021/09/10 08:54:54;;;;;;;9.07;6.37;;;;;;;;;;5001794;28;20480;-90
2021/09/10 08:57:23;;;;;;;6.87;6.37;;;;;;;;;;5000566;28;20967;-90
2021/09/10 09:00:02;;;;;;;7.83;6.33;;;;;;;;;;4998062;28;20539;-92
2021/09/10 09:02:29;;;;;;;6.93;6.33;;;;;;;;;;4997519;28;20504;-89
2021/09/10 09:04:57;;;;;;;7.30;6.60;;;25.20;99.90;;;;;;4996224;28;20453;-92
2021/09/10 09:07:26;;;;;;;7.93;7.23;;;25.10;99.90;;;;;;4998987;28;20863;-89
2021/09/10 09:09:54;;;;;;;7.70;7.00;;;;;;;;;;4995870;28;20456;-89
2021/09/10 09:12:22;;;;;;;9.30;7.80;;;23.90;99.90;;;;;;4993495;28;20477;-91
2021/09/10 09:14:52;;;;;;;7.20;6.60;;;23.60;99.90;;;;;;4994965;28;20457;-91
2021/09/10 09:17:21;;;;;;;7.60;7.00;;;23.50;99.90;;;;;;4995411;28;20454;-90
2021/09/10 09:20:12;;;;;;;9.70;7.10;;;23.20;99.90;;;;;;4996408;28;20446;-89
2021/09/10 09:23:00;;;;;;;11.90;6.43;;;22.60;99.90;;;;;;5001372;28;20441;-87
2021/09/10 09:25:29;;;;;;;10.03;7.47;;;23.10;99.90;;;;;;5013073;28;20495;-91
2021/09/10 09:27:56;;;;;;;7.47;6.77;;;;;;;;;;5003656;28;20442;-89
2021/09/10 09:30:39;;;;;;;6.93;6.40;;;23.50;99.90;;;;;;5000469;28;20452;-90
2021/09/10 09:33:07;;;;;;;8.70;7.70;;;23.50;99.90;;;;;;4978379;28;20488;-89
2021/09/10 09:35:35;;;;;;;8.70;7.90;;;23.10;99.90;;;;;;4993278;28;20472;-92
2021/09/10 09:38:14;;;;;;;7.60;6.90;;;22.50;99.90;;;;;;4996821;28;20856;-89
2021/09/10 09:40:41;;;;;;;8.80;7.73;;;;;;;;;;4992962;28;20944;-88
2021/09/10 09:43:17;;;;;;;7.70;7.10;;;22.70;99.90;;;;;;4995624;28;20445;-95
2021/09/10 09:45:47;;;;;;;9.27;7.87;;;22.70;99.90;;;;;;4997232;28;20488;-91
2021/09/10 09:48:16;;;;;;;8.70;8.00;;;22.60;99.90;;;;;;4994792;28;20449;-92
2021/09/10 09:50:44;;;;;;;8.63;7.67;;;22.70;99.90;;;;;;4992978;28;20488;-89
2021/09/10 09:53:13;;;;;;;8.00;7.20;;;;;;;;;;4992541;28;20543;-91
2021/09/10 09:55:41;;;;;;;8.03;5.60;;;23.40;99.90;;;;;;4992493;28;20453;-93
2021/09/10 09:58:10;;;;;;;14.30;7.37;;;23.50;99.90;;;;;;4995192;28;20452;-90
2021/09/10 10:00:38;;;;;;;7.77;7.07;;;23.10;99.90;;;;;;4994255;28;20488;-89
2021/09/10 10:03:05;;;;;;;8.33;7.73;;;;;;;;;;4991946;28;20445;-92
2021/09/10 10:05:41;;;;;;;8.07;7.40;;;23.40;99.90;;;;;;4995049;28;20457;-90
2021/09/10 10:08:11;;;;;;;8.47;7.53;;;23.30;99.90;;;;;;4992755;28;20814;-91
2021/09/10 10:10:44;;;;;;;7.97;7.17;;;23.60;99.90;;;;;;4995817;28;20453;-92
2021/09/10 10:13:14;;;;;;;7.60;6.90;;;23.50;99.90;;;;;;4990359;28;20485;-92
2021/09/10 10:15:45;;;;;;;8.20;7.40;;;23.90;99.90;;;;;;4992956;28;20462;-91
2021/09/10 10:18:13;;;;;;;8.00;7.20;;;;;;;;;;4996625;28;20489;-92
2021/09/10 10:20:53;;;;;;;7.53;6.83;;;26.80;98.00;;;;;;4997862;28;20445;-91
2021/09/10 10:23:58;;;;;;;6.73;6.13;;;26.90;96.50;;;;;;4993029;28;20450;-89
2021/09/10 10:26:48;;;;;;;7.33;6.73;;;25.90;97.10;;;;;;4961416;28;20519;-90
2021/09/10 10:29:18;;;;;;;7.20;6.50;;;25.70;98.00;;;;;;4988800;28;20503;-90
2021/09/10 10:32:02;;;;;;;8.10;7.40;;;25.70;98.40;;;;;;4995038;28;20453;-90
2021/09/10 10:34:31;;;;;;;8.53;7.77;;;26.30;97.90;;;;;;4991841;28;20484;-89
2021/09/10 10:36:58;;;;;;;7.10;6.50;;;;;;;;;;4995416;28;20445;-93
2021/09/10 10:39:30;;;;;;;7.47;6.17;;;25.10;97.30;;;;;;4994542;28;21035;-90
2021/09/10 10:42:03;;;;;;;6.77;6.27;;;24.30;99.20;;;;;;4995117;28;20438;-92
2021/09/10 10:44:46;;;;;;;6.70;6.20;;;24.20;99.90;;;;;;4993365;28;20460;-88
2021/09/10 10:47:14;;;;;;;7.03;6.33;;;24.80;98.50;;;;;;4994538;28;20491;-90
2021/09/10 10:49:43;;;;;;;6.47;5.87;;;24.60;99.00;;;;;;4992539;28;20457;-91
2021/09/10 10:52:31;;;;;;;7.50;6.37;;;25.10;98.90;;;;;;4993964;28;20453;-89
2021/09/10 10:55:21;;;;;;;6.60;6.10;;;25.40;98.30;;;;;;4994291;28;20814;-90
2021/09/10 10:57:51;;;;;;;6.40;5.90;;;25.20;99.00;;;;;;4994338;28;20479;-94
2021/09/10 11:00:49;;;;;;;6.87;6.37;;;25.30;98.60;;;;;;4992823;28;20453;-88
2021/09/10 11:03:38;;;;;;;7.53;6.93;;;25.40;97.10;;;;;;4972208;28;20826;-94
2021/09/10 11:06:37;;;;;;;8.00;7.20;;;25.20;97.20;;;;;;4994329;28;20493;-89
2021/09/10 11:09:09;;;;;;;7.23;6.63;;;25.80;99.10;;;;;;4991400;28;20953;-88
2021/09/10 11:11:36;;;;;;;7.43;6.57;;;;;;;;;;4990828;28;20489;-94
2021/09/10 11:14:08;;;;;;;6.50;5.80;;;26.70;99.70;;;;;;4992815;28;20971;-90
2021/09/10 11:16:35;;;;;;;7.70;7.10;;;;;;;;;;4993889;28;20468;-88
2021/09/10 11:19:03;;;;;;;7.87;7.17;;;;;;;;;;4993376;28;20453;-94
2021/09/10 11:21:31;;;;;;;7.80;7.00;;;27.30;96.60;;;;;;4993655;28;20512;-88
2021/09/10 11:24:10;;;;;;;5.83;5.33;;;26.00;95.90;;;;;;4994504;28;20991;-90
2021/09/10 11:26:38;;;;;;;7.73;7.03;;;;;;;;;;4991303;28;20968;-91
2021/09/10 11:29:12;;;;;;;7.10;6.60;;;26.00;97.70;;;;;;4993832;28;20970;-91
2021/09/10 11:31:40;;;;;;;6.83;6.33;;;;;;;;;;4994036;28;20507;-88
2021/09/10 11:34:07;;;;;;;7.60;6.40;;;;;;;;;;4998208;28;20483;-91
2021/09/10 11:36:34;;;;;;;8.20;6.90;;;;;;;;;;4999320;28;20453;-90
2021/09/10 11:39:03;;;;;;;8.97;8.17;;;25.80;98.70;;;;;;4999162;28;20476;-89
2021/09/10 11:41:31;;;;;;;7.80;7.10;;;26.60;97.50;;;;;;5001100;28;20449;-90
2021/09/10 11:44:06;;;;;;;7.03;6.33;;;26.80;96.70;;;;;;4998178;28;20434;-92
2021/09/10 11:46:35;;;;;;;8.20;7.43;;;27.00;95.80;;;;;;5003211;28;20496;-90
2021/09/10 11:49:02;;;;;;;7.87;7.13;;;;;;;;;;5000131;28;20460;-91
2021/09/10 11:51:42;;;;;;;7.23;6.63;;;27.20;95.50;;;;;;4998318;28;20434;-91
2021/09/10 11:54:14;;;;;;;7.50;6.90;;;26.00;97.00;;;;;;4998287;28;20445;-89
2021/09/10 11:56:42;;;;;;;7.63;7.03;;;;;;;;;;4996182;28;20525;-90
2021/09/10 11:59:24;;;;;;;9.23;7.90;;;25.00;98.80;;;;;;4995192;28;20441;-92
2021/09/10 12:01:55;;;;;;;8.03;7.33;;;25.00;98.60;;;;;;4999672;28;20445;-89
2021/09/10 12:04:30;;;;;;;7.60;6.73;;;24.70;99.40;;;;;;5001501;28;20510;-90
2021/09/10 12:06:58;;;;;;;8.27;7.57;;;24.60;99.90;;;;;;4998747;28;20821;-90
2021/09/10 12:09:27;;;;;;;9.97;8.23;;;24.90;99.90;;;;;;4996623;28;20544;-90
2021/09/10 12:12:16;;;;;;;8.50;7.80;;;25.50;99.60;;;;;;4997454;28;20816;-90
2021/09/10 12:14:48;;;;;;;7.77;7.00;;;26.40;99.00;;;;;;4997672;28;20469;-89
2021/09/10 12:17:27;;;;;;;8.83;8.03;;;26.20;97.60;;;;;;4995126;28;20461;-91
2021/09/10 12:20:03;;;;;;;8.00;7.20;;;26.80;96.10;;;;;;4997496;28;20445;-92
2021/09/10 12:22:33;;;;;;;7.30;6.80;;;26.40;96.50;;;;;;4998225;28;20441;-92
2021/09/10 12:25:20;;;;;;;8.27;7.57;;;25.60;97.90;;;;;;4994634;28;20469;-93
2021/09/10 12:27:47;;;;;;;8.23;7.43;;;;;;;;;;4998770;28;20489;-91
2021/09/10 12:30:17;;;;;;;8.83;8.10;;;25.50;98.60;;;;;;4998827;28;20460;-92
2021/09/10 12:32:45;;;;;;;7.93;7.30;;;25.90;99.90;;;;;;5001823;28;20535;-89
2021/09/10 12:35:12;;;;;;;7.90;7.20;;;;;;;;;;5004440;28;20461;-90
2021/09/10 12:37:39;;;;;;;7.17;6.57;;;;;;;;;;5003226;28;20441;-91
2021/09/10 12:40:07;;;;;;;8.97;8.17;;;25.80;98.50;;;;;;5004417;28;20455;-91
2021/09/10 12:42:35;;;;;;;8.47;7.57;;;;;;;;;;5003081;28;20453;-89
2021/09/10 12:45:02;;;;;;;7.03;6.30;;;;;;;;;;5005147;28;20441;-92
2021/09/10 12:47:29;;;;;;;8.27;7.57;;;;;;;;;;5004084;28;20508;-90
2021/09/10 12:49:57;;;;;;;7.47;6.87;;;25.20;99.50;;;;;;5002066;28;20437;-90
2021/09/10 12:52:24;;;;;;;7.43;6.73;;;;;;;;;;4997431;28;20448;-92
2021/09/10 12:54:51;;;;;;;7.27;6.57;;;;;;;;;;5002601;28;20460;-89
2021/09/10 12:57:19;;;;;;;6.53;5.93;;;;;;;;;;5000856;28;20457;-92
2021/09/10 12:59:46;;;;;;;7.03;6.40;;;;;;;;;;4997440;28;20449;-90
2021/09/10 13:04:55;;;;;;;6.70;6.10;;;;;;;;;;4987357;23;20489;-90
2021/09/10 13:07:24;;;;;;;6.73;6.13;;;;;;;;;;5010607;28;20508;-90
2021/09/10 13:09:51;;;;;;;5.73;5.23;;;;;;;;;;5003124;28;20511;-90
2021/09/10 13:12:18;;;;;;;5.80;5.20;;;;;;;;;;4997886;28;20460;-89
2021/09/10 13:14:48;;;;;;;5.73;5.33;;;;;;;;;;5000257;28;20453;-90
2021/09/10 13:17:15;;;;;;;5.40;4.97;;;;;;;;;;4998959;28;20457;-94
2021/09/10 13:19:43;;;;;;;5.13;4.73;;;;;;;;;;5003634;28;20448;-90
2021/09/10 13:22:10;;;;;;;4.83;4.37;;;;;;;;;;4998409;28;20449;-91
2021/09/10 13:24:39;;;;;;;5.00;4.60;;;24.40;99.90;;;;;;5001558;28;20445;-90
2021/09/10 13:27:07;;;;;;;4.60;4.20;;;;;;;;;;5000345;28;20476;-92
2021/09/10 13:29:34;;;;;;;5.90;4.00;;;;;;;;;;4993235;28;20445;-91
2021/09/10 13:32:01;;;;;;;5.07;4.67;;;;;;;;;;4995597;28;20445;-92
2021/09/10 13:34:28;;;;;;;5.10;4.70;;;;;;;;;;4994925;28;20472;-91
2021/09/10 13:36:55;;;;;;;5.23;4.73;;;;;;;;;;4994831;28;20941;-87
2021/09/10 13:39:23;;;;;;;4.83;4.43;;;;;;;;;;4994426;28;20450;-87
2021/09/10 13:41:53;;;;;;;5.40;4.97;;;23.60;99.90;;;;;;4994142;28;20449;-87
2021/09/10 13:44:20;;;;;;;6.40;5.80;;;;;;;;;;4993492;28;20445;-94
2021/09/10 13:46:48;;;;;;;6.83;6.20;;;;;;;;;;4994812;28;20481;-88
2021/09/10 13:49:15;;;;;;;6.50;5.93;;;;;;;;;;4991487;28;20448;-87
2021/09/10 13:51:42;;;;;;;7.27;6.53;;;;;;;;;;4993460;28;20788;-87
2021/09/10 13:54:09;;;;;;;7.70;5.23;;;;;;;;;;4993906;28;20449;-87
2021/09/10 13:56:36;;;;;;;6.77;6.27;;;;;;;;;;4993800;28;20449;-86
2021/09/10 13:59:05;;;;;;;6.43;5.83;;;24.50;99.90;;;;;;4992805;28;20454;-87
2021/09/10 14:01:32;;;;;;;6.90;6.30;;;;;;;;;;4993876;28;20454;-89
2021/09/10 14:03:59;;;;;;;6.63;6.13;;;;;;;;;;4995207;28;20469;-87
2021/09/10 14:06:26;;;;;;;6.43;5.93;;;;;;;;;;5003193;28;20481;-88
2021/09/10 14:08:53;;;;;;;7.23;6.53;;;;;;;;;;5003967;28;20496;-93
2021/09/10 14:11:21;;;;;;;7.10;6.20;;;;;;;;;;4995146;28;20460;-90
2021/09/10 14:13:48;;;;;;;6.10;5.60;;;;;;;;;;4990917;28;20449;-89